createdAt,value
2024-03-01T00:03:10.930Z,65.61
2024-03-01T00:08:12.333Z,65.46
2024-03-01T00:13:13.772Z,66.09
2024-03-01T00:18:15.245Z,66.11
2024-03-01T00:23:16.676Z,65.61
2024-03-01T00:28:18.118Z,66.18
2024-03-01T00:33:19.535Z,66.02
2024-03-01T00:38:21.272Z,65.66
2024-03-01T00:43:22.697Z,65.83
2024-03-01T00:48:24.765Z,66.29
2024-03-01T00:53:26.179Z,65.91
2024-03-01T00:58:27.784Z,65.73
2024-03-01T01:03:29.218Z,66.18
2024-03-01T01:08:30.617Z,65.82
2024-03-01T01:13:32.155Z,66.25
2024-03-01T01:18:33.618Z,65.92
2024-03-01T01:23:35.007Z,65.96
2024-03-01T01:28:36.449Z,65.95
2024-03-01T01:33:37.866Z,66.29
2024-03-01T01:38:39.223Z,65.77
2024-03-01T01:43:44.026Z,66.78
2024-03-01T01:48:46.295Z,67.05
2024-03-01T01:53:48.533Z,66.92
2024-03-01T01:58:51.183Z,67.35
2024-03-01T02:03:53.086Z,66.63
2024-03-01T02:08:54.562Z,67.11
2024-03-01T02:13:56.525Z,67.65
2024-03-01T02:18:58.155Z,67.10
2024-03-01T02:23:59.648Z,67.12
2024-03-01T02:29:02.404Z,66.89
2024-03-01T02:34:03.848Z,66.97
2024-03-01T02:39:17.733Z,67.27
2024-03-01T02:44:19.110Z,66.95
2024-03-01T02:49:20.668Z,66.80
2024-03-01T02:54:22.109Z,66.84
2024-03-01T02:59:23.626Z,67.05
2024-03-01T03:04:25.072Z,67.16
2024-03-01T03:09:26.539Z,67.55
2024-03-01T03:14:28.014Z,67.51
2024-03-01T03:19:30.604Z,67.80
2024-03-01T03:24:32.040Z,67.48
2024-03-01T03:29:34.489Z,67.23
2024-03-01T03:34:35.930Z,67.55
2024-03-01T03:39:37.379Z,67.53
2024-03-01T03:44:38.783Z,66.78
2024-03-01T03:49:40.178Z,67.26
2024-03-01T03:54:41.553Z,67.14
2024-03-01T03:59:42.944Z,67.06
2024-03-01T04:04:44.323Z,67.28
2024-03-01T04:09:45.712Z,67.35
2024-03-01T04:14:47.165Z,67.31
2024-03-01T04:19:48.555Z,67.49
2024-03-01T04:24:50.739Z,67.36
2024-03-01T04:29:52.229Z,67.48
2024-03-01T04:34:55.472Z,67.50
2024-03-01T04:39:56.959Z,67.34
2024-03-01T04:44:58.323Z,67.44
2024-03-01T04:49:59.968Z,67.51
2024-03-01T04:55:01.416Z,67.53
2024-03-01T05:00:04.351Z,67.45
2024-03-01T05:05:07.016Z,67.83
2024-03-01T05:10:12.677Z,67.34
2024-03-01T05:15:16.509Z,67.59
2024-03-01T05:20:18.149Z,67.63
2024-03-01T05:25:20.401Z,67.68
2024-03-01T05:30:35.995Z,67.50
2024-03-01T05:35:45.166Z,67.26
2024-03-01T05:40:52.380Z,66.85
2024-03-01T05:45:57.260Z,66.81
2024-03-01T05:51:00.032Z,67.13
2024-03-01T05:56:01.490Z,67.21
2024-03-01T06:01:05.398Z,66.64
2024-03-01T06:06:08.550Z,67.19
2024-03-01T06:11:10.192Z,66.82
2024-03-01T06:16:11.678Z,66.53
2024-03-01T06:21:21.593Z,67.43
2024-03-01T06:26:23.535Z,68.04
2024-03-01T06:31:25.073Z,67.09
2024-03-01T06:36:27.271Z,67.14
2024-03-01T06:41:28.669Z,67.16
2024-03-01T06:46:30.921Z,66.00
2024-03-01T06:51:32.572Z,66.31
2024-03-01T06:56:34.073Z,66.64
2024-03-01T07:01:36.084Z,65.91
2024-03-01T07:06:37.749Z,66.58
2024-03-01T07:11:39.215Z,66.01
2024-03-01T07:16:41.132Z,66.16
2024-03-01T07:21:42.560Z,65.74
2024-03-01T07:26:44.128Z,66.34
2024-03-01T07:31:45.617Z,65.89
2024-03-01T07:36:47.050Z,65.89
2024-03-01T07:41:48.575Z,66.05
2024-03-01T07:46:57.057Z,66.74
2024-03-01T07:51:58.807Z,66.08
2024-03-01T07:57:00.372Z,66.29
2024-03-01T08:02:02.252Z,66.00
2024-03-01T08:07:03.946Z,66.20
2024-03-01T08:12:06.884Z,65.89
2024-03-01T08:17:09.276Z,65.56
2024-03-01T08:22:16.070Z,65.44
2024-03-01T08:27:25.409Z,65.20
2024-03-01T08:32:43.434Z,65.08
2024-03-01T08:37:45.030Z,64.76
2024-03-01T08:42:46.451Z,65.06
2024-03-01T08:48:00.175Z,65.39
2024-03-01T08:53:02.030Z,64.87
2024-03-01T08:58:03.710Z,65.61
2024-03-01T09:03:11.352Z,65.35
2024-03-01T09:08:23.571Z,64.79
2024-03-01T09:13:26.965Z,64.98
2024-03-01T09:18:48.185Z,64.52
2024-03-01T09:23:49.934Z,63.93
2024-03-01T09:28:51.707Z,63.67
2024-03-01T09:33:53.274Z,62.92
2024-03-01T09:39:05.569Z,62.30
2024-03-01T09:44:23.997Z,61.93
2024-03-01T09:50:14.814Z,61.94
2024-03-01T09:55:47.254Z,61.62
2024-03-01T10:01:12.277Z,61.80
2024-03-01T10:06:28.461Z,60.94
2024-03-01T10:11:38.740Z,60.66
2024-03-01T10:17:04.855Z,60.49
2024-03-01T10:22:21.404Z,61.09
2024-03-01T10:27:40.099Z,60.91
2024-03-01T10:33:04.956Z,61.16
2024-03-01T10:38:32.474Z,61.25
2024-03-01T10:43:45.774Z,60.91
2024-03-01T10:49:03.423Z,61.06
2024-03-01T10:54:08.337Z,61.14
2024-03-01T10:59:19.486Z,61.05
2024-03-01T11:04:29.359Z,61.85
2024-03-01T11:09:55.601Z,61.31
2024-03-01T11:15:08.978Z,61.51
2024-03-01T11:20:17.260Z,61.56
2024-03-01T11:25:22.312Z,61.24
2024-03-01T11:30:28.567Z,60.82
2024-03-01T11:35:34.200Z,61.22
2024-03-01T11:41:10.436Z,61.56
2024-03-01T11:46:17.938Z,60.99
2024-03-01T11:51:38.610Z,60.93
2024-03-01T11:57:06.056Z,60.78
2024-03-01T12:02:34.613Z,61.26
2024-03-01T12:08:07.441Z,61.05
2024-03-01T12:13:14.647Z,60.75
2024-03-01T12:18:30.363Z,60.65
2024-03-01T12:23:53.054Z,60.39
2024-03-01T12:29:19.349Z,60.75
2024-03-01T12:34:38.431Z,61.39
2024-03-01T12:39:45.875Z,59.87
2024-03-01T12:44:57.413Z,59.43
2024-03-01T12:50:20.473Z,58.44
2024-03-01T12:55:33.099Z,57.12
2024-03-01T13:00:53.675Z,51.61
2024-03-01T13:05:55.963Z,48.65
2024-03-01T13:11:02.475Z,52.22
2024-03-01T13:16:19.690Z,51.60
2024-03-01T13:21:30.474Z,46.12
2024-03-01T13:26:38.955Z,46.56
2024-03-01T13:32:00.358Z,49.37
2024-03-01T13:37:10.471Z,50.11
2024-03-01T13:42:39.205Z,50.87
2024-03-01T13:47:47.707Z,49.51
2024-03-01T13:52:49.526Z,43.65
2024-03-01T13:57:51.605Z,44.89
2024-03-01T14:02:53.598Z,45.86
2024-03-01T14:07:58.571Z,43.70
2024-03-01T14:13:01.148Z,45.87
2024-03-01T14:18:02.585Z,46.90
2024-03-01T14:23:05.179Z,47.70
2024-03-01T14:28:07.952Z,47.68
2024-03-01T14:33:11.180Z,48.09
2024-03-01T14:38:16.433Z,48.54
2024-03-01T14:43:17.900Z,47.37
2024-03-01T14:48:34.068Z,47.36
2024-03-01T14:53:48.240Z,47.15
2024-03-01T14:58:50.858Z,48.08
2024-03-01T15:03:52.316Z,48.13
2024-03-01T15:08:53.708Z,48.19
2024-03-01T15:13:55.335Z,47.97
2024-03-01T15:18:58.253Z,48.49
2024-03-01T15:24:02.530Z,48.61
2024-03-01T15:29:05.865Z,49.01
2024-03-01T15:34:07.943Z,48.97
2024-03-01T15:39:11.301Z,49.25
2024-03-01T15:44:12.715Z,49.44
2024-03-01T15:49:14.276Z,49.60
2024-03-01T15:54:15.741Z,50.07
2024-03-01T15:59:17.915Z,50.18
2024-03-01T16:04:20.883Z,50.23
2024-03-01T16:09:22.250Z,50.14
2024-03-01T16:14:23.950Z,50.63
2024-03-01T16:19:25.426Z,50.53
2024-03-01T16:24:26.932Z,50.31
2024-03-01T16:29:33.341Z,50.52
2024-03-01T16:34:34.749Z,51.27
2024-03-01T16:39:40.034Z,51.35
2024-03-01T16:44:44.997Z,51.41
2024-03-01T16:49:46.573Z,51.54
2024-03-01T16:54:48.586Z,51.83
2024-03-01T16:59:50.369Z,52.07
2024-03-01T17:04:51.822Z,52.36
2024-03-01T17:09:53.981Z,52.59
2024-03-01T17:14:56.228Z,53.17
2024-03-01T17:19:57.636Z,53.29
2024-03-01T17:24:59.073Z,54.11
2024-03-01T17:30:00.596Z,54.30
2024-03-01T17:35:01.982Z,54.91
2024-03-01T17:40:03.565Z,55.21
2024-03-01T17:45:05.672Z,55.88
2024-03-01T17:50:08.337Z,56.23
2024-03-01T17:55:10.162Z,56.41
2024-03-01T18:00:12.850Z,56.30
2024-03-01T18:05:14.459Z,56.92
2024-03-01T18:10:20.355Z,57.29
2024-03-01T18:15:21.852Z,57.70
2024-03-01T18:20:24.108Z,57.85
2024-03-01T18:25:25.676Z,58.19
2024-03-01T18:30:27.104Z,58.40
2024-03-01T18:35:28.891Z,58.81
2024-03-01T18:40:30.707Z,58.87
2024-03-01T18:45:32.076Z,59.39
2024-03-01T18:50:33.559Z,59.50
2024-03-01T18:55:35.147Z,59.84
2024-03-01T19:00:41.067Z,60.09
2024-03-01T19:05:45.014Z,60.35
2024-03-01T19:10:46.568Z,60.15
2024-03-01T19:15:48.057Z,60.54
2024-03-01T19:20:49.431Z,61.00
2024-03-01T19:25:50.819Z,61.28
2024-03-01T19:30:52.394Z,61.50
2024-03-01T19:35:54.900Z,61.80
2024-03-01T19:40:56.478Z,61.35
2024-03-01T19:45:57.933Z,61.79
2024-03-01T19:50:59.392Z,61.77
2024-03-01T19:56:00.764Z,61.54
2024-03-01T20:01:02.267Z,62.37
2024-03-01T20:06:04.222Z,61.78
2024-03-01T20:11:05.645Z,62.43
2024-03-01T20:16:07.185Z,62.22
2024-03-01T20:21:08.608Z,62.91
2024-03-01T20:26:10.017Z,62.86
2024-03-01T20:31:11.797Z,62.48
2024-03-01T20:36:13.333Z,63.13
2024-03-01T20:41:14.733Z,63.11
2024-03-01T20:46:16.162Z,63.47
2024-03-01T20:51:17.548Z,63.55
2024-03-01T20:56:19.161Z,63.28
2024-03-01T21:01:20.760Z,63.70
2024-03-01T21:06:22.361Z,63.74
2024-03-01T21:11:25.711Z,63.89
2024-03-01T21:16:27.144Z,63.56
2024-03-01T21:21:28.708Z,63.92
2024-03-01T21:26:30.120Z,64.04
2024-03-01T21:31:31.473Z,64.14
2024-03-01T21:36:32.860Z,64.53
2024-03-01T21:41:34.387Z,64.07
2024-03-01T21:46:35.869Z,65.16
2024-03-01T21:51:37.369Z,65.11
2024-03-01T21:56:38.920Z,64.36
2024-03-01T22:01:40.390Z,64.68
2024-03-01T22:06:42.867Z,65.59
2024-03-01T22:11:48.320Z,65.15
2024-03-01T22:16:49.821Z,64.98
2024-03-01T22:21:52.308Z,65.71
2024-03-01T22:26:53.973Z,64.79
2024-03-01T22:31:55.778Z,65.13
2024-03-01T22:36:57.554Z,64.98
2024-03-01T22:41:59.188Z,65.50
2024-03-01T22:47:00.862Z,66.32
2024-03-01T22:52:02.624Z,66.05
2024-03-01T22:57:04.183Z,65.70
2024-03-01T23:02:06.709Z,66.21
2024-03-01T23:07:09.546Z,65.75
2024-03-01T23:12:12.331Z,65.56
2024-03-01T23:17:14.587Z,66.68
2024-03-01T23:22:17.447Z,65.91
2024-03-01T23:27:19.727Z,65.96
2024-03-01T23:32:21.386Z,66.17
2024-03-01T23:37:22.963Z,66.21
2024-03-01T23:42:24.490Z,65.56
2024-03-01T23:47:25.990Z,65.88
2024-03-01T23:52:28.565Z,65.84
2024-03-01T23:57:30.018Z,66.47
